Wolfcreek, Wisconsin
Current Conditions -  °F | °C
As of 6:15 PM on Friday 24 Oct 2014 (Local Time) from KOEO Reporting Station
Clear Clear  
Wind Chill: 56°   Ceiling: Unl
Heat Index: 56°   Visibility: 7mi
Dew Point: 56°   Wind: 5mph
Humidity: 98%   Direction: 160°SSE
Pressure: 29.87"   Gusts: NA
Location:  45.4182°N, 92.6295°W
Report Text: KOEO 242315Z AUTO 16004KT 7SM CLR 14/13 A2987 RMK AO2 T01350132
Loading
Personal Weather Stations






























Interactive Weather Map
Tropical Storm Tracking
New forecast layout! Learn more

10-Day Weather Forecast

Advertisements
Track Severe Weather on mobile